Time;durP1;ratioP1;P1;durP2;ratioP2;P2;SDS_P1;SDS_P2;PMS_P1;PMS_P2;Temp;Humidity;BMP_temperature;BMP_pressure;BME280_temperature;BME280_humidity;BME280_pressure;Samples;Min_cycle;Max_cycle;Signal;HPM_P1;HPM_P2
2022/09/17 00:01:44;;;;;;;;;3.00;3.00;;;;;11.68;67.53;101756.94;5011826;28;49643;-71
2022/09/17 00:04:09;;;;;;;;;3.00;3.00;;;;;11.68;67.66;101772.72;4993491;28;49690;-73
2022/09/17 00:06:35;;;;;;;;;2.00;2.00;;;;;11.73;67.77;101805.31;5011530;28;50934;-72
2022/09/17 00:09:04;;;;;;;;;3.50;2.50;;;;;11.56;67.95;101756.50;5011269;28;49889;-72
2022/09/17 00:11:32;;;;;;;;;2.00;2.00;;;;;11.23;68.16;101717.75;5011319;28;49849;-77
2022/09/17 00:13:59;;;;;;;;;2.00;2.00;;;;;11.67;68.40;101779.69;4993488;28;50013;-70
2022/09/17 00:16:32;;;;;;;;;3.00;3.00;;;;;11.66;68.41;101779.63;5010615;28;49609;-73
2022/09/17 00:18:58;;;;;;;;;2.25;2.25;;;;;11.24;68.76;101706.41;5010373;28;49778;-74
2022/09/17 00:21:24;;;;;;;;;3.00;3.00;;;;;11.38;68.66;101747.16;4993436;28;49983;-73
2022/09/17 00:24:02;;;;;;;;;2.00;2.00;;;;;11.52;68.82;101770.41;5011580;28;49784;-72
2022/09/17 00:26:29;;;;;;;;;3.00;2.75;;;;;11.49;68.83;101781.72;5010450;28;49730;-74
2022/09/17 00:28:55;;;;;;;;;1.50;1.50;;;;;11.07;69.21;101700.56;5010997;28;49589;-77
2022/09/17 00:31:21;;;;;;;;;2.75;2.75;;;;;11.42;69.28;101772.75;5010851;28;49922;-74
2022/09/17 00:33:47;;;;;;;;;3.00;3.00;;;;;11.27;69.23;101742.41;5011259;28;50551;-75
2022/09/17 00:36:13;;;;;;;;;4.00;3.00;;;;;11.08;69.33;101728.63;5010727;28;49846;-69
2022/09/17 00:38:38;;;;;;;;;3.00;3.00;;;;;11.49;69.54;101789.63;5010336;28;50225;-79
2022/09/17 00:41:05;;;;;;;;;3.25;3.25;;;;;11.51;69.37;101794.94;5010203;28;49865;-72
2022/09/17 00:43:53;;;;;;;;;3.00;3.00;;;;;11.41;69.63;101780.56;5010710;28;49931;-75
2022/09/17 00:46:38;;;;;;;;;3.75;3.75;;;;;11.45;69.86;101801.75;5010233;28;50565;-71
2022/09/17 00:49:21;;;;;;;;;2.75;2.75;;;;;11.36;69.69;101769.00;5010652;28;50013;-69
2022/09/17 00:51:56;;;;;;;;;1.00;1.00;;;;;11.09;69.72;101724.28;5010615;28;49819;-77
2022/09/17 00:54:22;;;;;;;;;2.00;2.00;;;;;11.21;69.85;101747.47;5010565;28;49691;-68
2022/09/17 00:56:49;;;;;;;;;3.00;3.00;;;;;11.38;70.15;101780.44;5010735;28;49723;-69
2022/09/17 00:59:14;;;;;;;;;2.50;2.50;;;;;11.02;70.31;101735.44;5010863;28;49742;-69
2022/09/17 01:01:40;;;;;;;;;2.00;2.00;;;;;11.12;69.49;101748.06;5010248;28;49769;-68
2022/09/17 01:04:05;;;;;;;;;1.00;1.00;;;;;11.35;70.04;101785.63;5010813;28;49754;-68
2022/09/17 01:07:00;;;;;;;;;2.00;2.00;;;;;11.32;70.04;101783.78;5009312;28;53565;-69
2022/09/17 01:09:44;;;;;;;;;2.25;2.25;;;;;11.06;70.03;101755.72;4987406;28;49865;-68
2022/09/17 01:12:46;;;;;;;;;1.00;1.00;;;;;11.30;70.04;101800.34;5009635;28;49739;-72
2022/09/17 01:15:31;;;;;;;;;1.25;1.25;;;;;11.28;69.95;101791.50;5007669;28;49890;-68
2022/09/17 01:18:21;;;;;;;;;1.25;1.00;;;;;11.25;70.14;101796.66;5010084;28;50746;-68
2022/09/17 01:21:06;;;;;;;;;1.00;1.00;;;;;11.23;70.22;101799.25;5010080;28;50029;-68
2022/09/17 01:23:51;;;;;;;;;1.75;1.75;;;;;11.22;69.87;101805.34;5006701;28;49600;-69
2022/09/17 01:26:22;;;;;;;;;3.00;3.00;;;;;10.92;70.09;101755.25;5010276;28;49927;-68
2022/09/17 01:28:59;;;;;;;;;1.00;1.00;;;;;11.03;70.08;101779.25;5009829;28;49824;-68
2022/09/17 01:31:35;;;;;;;;;2.00;2.00;;;;;11.16;70.01;101813.00;5009809;28;49956;-70
2022/09/17 01:34:15;;;;;;;;;3.25;2.75;;;;;10.95;69.93;101784.25;5009695;28;49931;-68
2022/09/17 01:36:50;;;;;;;;;0.75;0.75;;;;;11.07;69.91;101813.56;5010497;28;49947;-69
2022/09/17 01:39:54;;;;;;;;;2.25;1.00;;;;;11.10;70.32;101813.69;5010315;28;49870;-68
2022/09/17 01:42:35;;;;;;;;;0.00;0.00;;;;;11.04;69.94;101817.84;4994299;28;50023;-69
2022/09/17 01:45:14;;;;;;;;;1.25;1.25;;;;;10.97;69.98;101807.94;5007825;28;49924;-68
2022/09/17 01:47:52;;;;;;;;;0.50;0.50;;;;;10.26;69.83;101710.84;5009784;28;49633;-70
2022/09/17 01:50:26;;;;;;;;;1.00;1.00;;;;;10.78;69.53;101786.25;5009380;28;49906;-68
2022/09/17 01:52:55;;;;;;;;;1.00;1.00;;;;;10.99;69.62;101832.53;5004455;28;50170;-68
2022/09/17 01:55:25;;;;;;;;;3.00;1.50;;;;;10.89;70.01;101813.78;5009607;28;50029;-68
2022/09/17 01:58:00;;;;;;;;;5.00;1.50;;;;;10.97;70.00;101826.31;5011816;28;49680;-68
2022/09/17 02:00:26;;;;;;;;;2.50;1.00;;;;;10.87;69.86;101818.13;5012678;28;50493;-72
2022/09/17 02:03:00;;;;;;;;;1.25;1.00;;;;;10.75;70.15;101794.03;5008892;28;49638;-68
2022/09/17 02:05:31;;;;;;;;;2.00;2.00;;;;;10.93;70.04;101830.59;5012997;28;49912;-68
2022/09/17 02:08:02;;;;;;;;;2.00;1.00;;;;;10.90;70.10;101830.44;5012654;28;49926;-68
2022/09/17 02:10:33;;;;;;;;;1.25;1.25;;;;;10.66;70.23;101806.81;5012581;28;51024;-71
2022/09/17 02:13:07;;;;;;;;;1.00;1.00;;;;;10.83;70.12;101831.09;5013213;28;49876;-72
2022/09/17 02:15:42;;;;;;;;;1.00;1.00;;;;;10.84;70.00;101823.25;5013207;28;49617;-68
2022/09/17 02:18:16;;;;;;;;;2.25;1.25;;;;;10.82;70.01;101826.69;5013285;28;49769;-68
2022/09/17 02:20:53;;;;;;;;;1.25;1.25;;;;;10.70;70.04;101813.97;5006895;28;51126;-68
2022/09/17 02:23:29;;;;;;;;;1.00;1.00;;;;;9.88;70.41;101692.75;5013429;28;50201;-68
2022/09/17 02:26:05;;;;;;;;;1.00;1.00;;;;;10.54;70.21;101782.75;5012088;28;50018;-68
2022/09/17 02:28:47;;;;;;;;;2.00;1.00;;;;;10.47;70.44;101773.75;5013118;28;49603;-67
2022/09/17 02:31:12;;;;;;;;;1.00;1.00;;;;;10.40;70.49;101770.81;5012528;28;50922;-68
2022/09/17 02:33:42;;;;;;;;;2.00;1.00;;;;;10.66;70.76;101801.56;5013541;28;50460;-68
2022/09/17 02:36:08;;;;;;;;;2.75;1.00;;;;;10.70;70.41;101813.06;5012860;28;49847;-67
2022/09/17 02:38:33;;;;;;;;;2.00;2.00;;;;;10.67;70.97;101819.13;5013182;28;49648;-68
2022/09/17 02:41:10;;;;;;;;;1.00;1.00;;;;;10.67;70.23;101821.75;5012054;28;49866;-68
2022/09/17 02:43:49;;;;;;;;;1.50;0.50;;;;;10.07;70.35;101725.81;5012507;28;49818;-68
2022/09/17 02:46:42;;;;;;;;;1.00;1.00;;;;;10.64;70.81;101821.63;5007121;28;49798;-68
2022/09/17 02:49:33;;;;;;;;;1.75;1.00;;;;;10.62;70.78;101812.81;5012225;28;49706;-67
2022/09/17 02:52:36;;;;;;;;;0.75;0.75;;;;;10.60;70.58;101817.09;4990479;28;50585;-71
2022/09/17 02:55:17;;;;;;;;;1.00;1.00;;;;;10.34;70.55;101778.50;5012456;28;49833;-68
2022/09/17 02:57:59;;;;;;;;;2.25;1.00;;;;;10.56;71.05;101820.44;5012444;28;49789;-68
2022/09/17 03:00:27;;;;;;;;;0.50;0.00;;;;;10.18;70.76;101767.34;5012657;28;50105;-75
2022/09/17 03:02:55;;;;;;;;;1.00;1.00;;;;;10.52;71.48;101819.44;5012196;28;49878;-68
2022/09/17 03:05:23;;;;;;;;;2.00;2.00;;;;;10.27;71.01;101780.88;5011891;28;49841;-68
2022/09/17 03:07:49;;;;;;;;;1.75;1.75;;;;;10.29;71.38;101784.44;5012211;28;49876;-68
2022/09/17 03:10:15;;;;;;;;;1.00;0.50;;;;;10.29;71.07;101788.78;5012373;28;49831;-68
2022/09/17 03:12:41;;;;;;;;;1.00;1.00;;;;;10.44;71.60;101809.50;4993894;28;50452;-69
2022/09/17 03:15:06;;;;;;;;;1.50;1.50;;;;;10.18;71.12;101777.84;5012288;28;49698;-68
2022/09/17 03:17:32;;;;;;;;;1.50;1.50;;;;;10.07;71.47;101750.31;5011593;28;49838;-75
2022/09/17 03:19:57;;;;;;;;;2.00;0.75;;;;;10.47;71.47;101825.34;5012292;28;50061;-73
2022/09/17 03:22:22;;;;;;;;;0.00;0.00;;;;;10.25;71.86;101810.53;5012043;28;54438;-70
2022/09/17 03:24:48;;;;;;;;;1.00;1.00;;;;;10.44;71.54;101827.88;4993813;28;49903;-73
2022/09/17 03:27:13;;;;;;;;;1.00;1.00;;;;;10.28;71.67;101816.78;5012083;28;51381;-70
2022/09/17 03:29:39;;;;;;;;;0.00;0.00;;;;;10.25;71.25;101803.53;5012354;28;49796;-71
2022/09/17 03:32:04;;;;;;;;;0.75;0.75;;;;;10.17;71.53;101789.19;5010631;28;49870;-69
2022/09/17 03:34:30;;;;;;;;;1.00;1.00;;;;;10.28;71.37;101808.00;5012063;28;49540;-69
2022/09/17 03:36:55;;;;;;;;;0.25;0.25;;;;;10.36;72.06;101826.69;5011877;28;49730;-70
2022/09/17 03:39:21;;;;;;;;;1.00;1.00;;;;;10.36;71.45;101826.69;5011684;28;49793;-68
2022/09/17 03:41:46;;;;;;;;;0.00;0.00;;;;;10.27;71.82;101828.09;5011401;28;50415;-72
2022/09/17 03:44:11;;;;;;;;;2.00;1.00;;;;;10.31;72.33;101823.84;5011745;28;49659;-72
2022/09/17 03:46:37;;;;;;;;;1.00;1.00;;;;;10.30;72.12;101827.31;5011223;28;50626;-71
2022/09/17 03:49:02;;;;;;;;;0.00;0.00;;;;;10.19;72.47;101803.25;5011985;28;49893;-72
2022/09/17 03:51:28;;;;;;;;;1.00;1.00;;;;;10.30;72.32;101836.09;5011582;28;50805;-76
2022/09/17 03:53:53;;;;;;;;;3.00;1.00;;;;;10.30;72.36;101835.19;5011437;28;55310;-73
2022/09/17 03:56:18;;;;;;;;;3.25;1.25;;;;;10.00;72.36;101790.25;5011293;28;49848;-71
2022/09/17 03:58:44;;;;;;;;;1.00;1.00;;;;;10.21;72.81;101822.56;5011871;28;49826;-72
2022/09/17 04:01:10;;;;;;;;;2.00;2.00;;;;;9.63;72.78;101725.84;5011169;28;50517;-69
2022/09/17 04:03:35;;;;;;;;;1.00;1.00;;;;;10.08;72.77;101812.44;5011303;28;49949;-73
2022/09/17 04:06:00;;;;;;;;;1.00;1.00;;;;;10.24;72.82;101832.34;5011712;28;49982;-68
2022/09/17 04:08:26;;;;;;;;;0.25;0.25;;;;;9.89;72.78;101783.69;4994154;28;49998;-69
2022/09/17 04:10:51;;;;;;;;;1.00;1.00;;;;;10.16;72.66;101820.63;5010881;28;50421;-69
2022/09/17 04:13:18;;;;;;;;;3.25;1.00;;;;;10.18;72.59;101839.94;5011455;28;49719;-70
2022/09/17 04:15:44;;;;;;;;;2.00;1.75;;;;;10.18;73.17;101856.56;5011225;28;49708;-73
2022/09/17 04:18:10;;;;;;;;;1.50;1.00;;;;;10.14;73.96;101848.53;5011758;28;49675;-69
2022/09/17 04:20:36;;;;;;;;;2.00;1.25;;;;;9.85;73.31;101801.03;5010275;28;50421;-69
2022/09/17 04:23:01;;;;;;;;;1.00;1.00;;;;;9.82;73.20;101800.00;5008023;28;49592;-69
2022/09/17 04:25:26;;;;;;;;;1.00;1.00;;;;;9.19;74.28;101695.25;5010499;28;57813;-69
2022/09/17 04:27:52;;;;;;;;;1.00;1.00;;;;;10.00;74.28;101840.09;5011089;28;55068;-72
2022/09/17 04:30:17;;;;;;;;;1.00;1.00;;;;;10.01;74.56;101849.75;5011028;28;50333;-75
2022/09/17 04:32:44;;;;;;;;;4.00;1.75;;;;;9.83;74.44;101823.66;5011311;28;49697;-70
2022/09/17 04:35:09;;;;;;;;;1.75;1.75;;;;;9.83;74.43;101851.63;5010996;28;49822;-73
2022/09/17 04:37:35;;;;;;;;;2.75;1.50;;;;;9.95;74.80;101850.41;5011851;28;49718;-68
2022/09/17 04:40:01;;;;;;;;;3.00;3.00;;;;;9.99;74.28;101860.19;5010590;28;50643;-69
2022/09/17 04:42:26;;;;;;;;;1.00;1.00;;;;;9.96;74.77;101852.22;5011157;28;49765;-69
2022/09/17 04:44:51;;;;;;;;;0.75;0.75;;;;;10.01;75.21;101870.75;5010436;28;50058;-75
2022/09/17 04:47:16;;;;;;;;;1.00;1.00;;;;;10.00;74.75;101866.31;5010292;28;59170;-77
2022/09/17 04:49:42;;;;;;;;;1.00;1.00;;;;;9.69;75.23;101814.34;5010146;28;64827;-69
2022/09/17 04:52:07;;;;;;;;;2.00;2.00;;;;;9.62;75.16;101807.06;5010565;28;64250;-71
2022/09/17 04:54:33;;;;;;;;;2.50;1.75;;;;;9.94;75.35;101879.19;5010087;28;49810;-68
2022/09/17 04:56:59;;;;;;;;;2.00;2.00;;;;;9.86;75.46;101880.63;5010840;28;49790;-68
2022/09/17 04:59:24;;;;;;;;;2.00;2.00;;;;;9.77;75.55;101846.16;5010793;28;50821;-68
2022/09/17 05:01:49;;;;;;;;;2.50;2.50;;;;;9.87;75.57;101872.81;5010681;28;50053;-68
2022/09/17 05:04:15;;;;;;;;;6.00;3.00;;;;;9.87;75.40;101878.06;5010610;28;49849;-68
2022/09/17 05:06:41;;;;;;;;;2.00;2.00;;;;;9.73;76.11;101858.22;5010683;28;50042;-68
2022/09/17 05:09:07;;;;;;;;;1.50;1.50;;;;;9.60;75.78;101834.94;5010137;28;51068;-68
2022/09/17 05:11:32;;;;;;;;;2.50;2.50;;;;;9.82;76.19;101876.06;5010520;28;49872;-72
2022/09/17 05:13:58;;;;;;;;;3.00;2.75;;;;;9.75;76.13;101873.22;5010788;28;49809;-71
2022/09/17 05:16:23;;;;;;;;;2.00;2.00;;;;;9.60;76.42;101835.84;5010020;28;49878;-72
2022/09/17 05:18:50;;;;;;;;;3.50;2.00;;;;;9.78;76.64;101880.28;5009636;28;68227;-71
2022/09/17 05:21:16;;;;;;;;;2.75;1.50;;;;;9.52;76.21;101838.97;5010101;28;49742;-72
2022/09/17 05:23:41;;;;;;;;;2.00;2.00;;;;;9.69;76.94;101875.56;5010047;28;49979;-72
2022/09/17 05:26:07;;;;;;;;;2.00;2.00;;;;;9.77;76.54;101890.72;5010502;28;49836;-77
2022/09/17 05:28:33;;;;;;;;;2.75;2.00;;;;;9.64;76.99;101879.69;5010371;28;49845;-71
2022/09/17 05:30:59;;;;;;;;;3.00;2.00;;;;;9.72;77.53;101899.28;5010376;28;49838;-74
2022/09/17 05:33:24;;;;;;;;;1.75;1.75;;;;;9.73;77.36;101894.94;5009319;28;49982;-74
2022/09/17 05:35:50;;;;;;;;;1.50;1.50;;;;;9.44;77.51;101851.75;5009879;28;49956;-76
2022/09/17 05:38:17;;;;;;;;;3.00;3.00;;;;;9.74;76.71;101904.56;5010175;28;51344;-69
2022/09/17 05:40:42;;;;;;;;;3.25;1.50;;;;;9.66;77.34;101885.03;5009587;28;49848;-68
2022/09/17 05:43:08;;;;;;;;;1.50;1.50;;;;;9.09;76.92;101816.19;5009957;28;49817;-73
2022/09/17 05:45:35;;;;;;;;;4.25;3.50;;;;;9.72;76.85;101890.50;5010585;28;49693;-80
2022/09/17 05:48:02;;;;;;;;;4.50;3.00;;;;;9.58;76.94;101866.34;5009123;28;51042;-68
2022/09/17 05:50:28;;;;;;;;;2.00;2.00;;;;;9.60;76.85;101872.53;5011901;28;49855;-72
2022/09/17 05:52:54;;;;;;;;;2.50;2.25;;;;;9.75;76.94;101893.28;5010440;28;49555;-68
2022/09/17 05:55:21;;;;;;;;;5.50;3.00;;;;;9.43;76.99;101842.09;5015399;28;49876;-71
2022/09/17 05:57:50;;;;;;;;;1.50;1.00;;;;;9.62;76.39;101877.84;4994847;28;52580;-69
2022/09/17 06:00:16;;;;;;;;;1.00;1.00;;;;;9.66;76.63;101885.94;5010048;28;49720;-69
2022/09/17 06:02:42;;;;;;;;;6.00;1.75;;;;;9.24;76.59;101816.81;5015617;28;50129;-70
2022/09/17 06:05:08;;;;;;;;;2.25;2.25;;;;;8.84;76.51;101773.19;5024313;28;49856;-71
2022/09/17 06:07:37;;;;;;;;;4.00;2.50;;;;;9.23;76.32;101846.47;5016803;28;49788;-74
2022/09/17 06:10:05;;;;;;;;;1.25;1.25;;;;;9.02;76.30;101775.72;5009841;28;49640;-71
2022/09/17 06:12:31;;;;;;;;;2.00;2.00;;;;;9.83;76.21;101917.19;5010380;28;49809;-69
2022/09/17 06:14:56;;;;;;;;;2.00;2.00;;;;;9.72;76.50;101899.28;5015636;28;50203;-71
2022/09/17 06:17:22;;;;;;;;;3.00;3.00;;;;;9.85;76.46;101912.94;5017449;28;49867;-69
2022/09/17 06:19:47;;;;;;;;;2.50;2.50;;;;;9.21;76.45;101828.91;5014363;28;49893;-67
2022/09/17 06:22:12;;;;;;;;;1.00;1.00;;;;;9.75;75.87;101888.03;5008215;28;49721;-72
2022/09/17 06:24:38;;;;;;;;;1.00;1.00;;;;;9.52;75.75;101841.59;5015550;28;49513;-72
2022/09/17 06:27:04;;;;;;;;;3.25;3.25;;;;;9.92;75.48;101905.34;5008631;28;60439;-71
2022/09/17 06:29:29;;;;;;;;;1.25;1.25;;;;;10.02;75.04;101920.63;5008770;28;49786;-71
2022/09/17 06:31:54;;;;;;;;;1.25;1.25;;;;;9.92;74.97;101904.47;5008445;28;49828;-70
2022/09/17 06:34:20;;;;;;;;;3.00;1.25;;;;;9.96;74.83;101896.78;5009071;28;49758;-69
2022/09/17 06:36:45;;;;;;;;;1.75;1.75;;;;;10.12;74.50;101937.66;5008757;28;50726;-70
2022/09/17 06:39:11;;;;;;;;;2.00;2.00;;;;;10.15;73.70;101927.31;5008889;28;49827;-71
2022/09/17 06:41:37;;;;;;;;;2.00;1.25;;;;;10.12;73.91;101916.66;5009430;28;49651;-71
2022/09/17 06:44:03;;;;;;;;;6.00;1.00;;;;;10.24;73.20;101932.97;5011480;28;50033;-72
2022/09/17 06:46:29;;;;;;;;;2.00;2.00;;;;;10.31;73.55;101931.47;5013200;28;49915;-70
2022/09/17 06:48:54;;;;;;;;;3.00;1.50;;;;;9.95;73.16;101863.53;5013370;28;50036;-69
2022/09/17 06:51:21;;;;;;;;;3.00;3.00;;;;;10.26;73.00;101905.06;5012958;28;49809;-72
2022/09/17 06:53:47;;;;;;;;;2.00;2.00;;;;;10.43;72.30;101939.84;5012469;28;49952;-70
2022/09/17 06:56:13;;;;;;;;;3.00;1.50;;;;;10.49;72.52;101952.31;5012248;28;50535;-69
2022/09/17 06:58:40;;;;;;;;;1.25;1.25;;;;;10.52;72.44;101932.34;5012786;28;49730;-70
2022/09/17 07:01:06;;;;;;;;;1.25;1.25;;;;;10.58;72.03;101929.06;5012968;28;51268;-70
2022/09/17 07:03:32;;;;;;;;;1.00;1.00;;;;;10.44;71.55;101896.13;5012652;28;49880;-70
2022/09/17 07:05:57;;;;;;;;;2.50;2.50;;;;;10.65;70.76;101935.44;5012178;28;50203;-72
2022/09/17 07:08:24;;;;;;;;;1.00;1.00;;;;;10.45;70.81;101900.53;5012820;28;49953;-72
2022/09/17 07:10:50;;;;;;;;;2.00;0.50;;;;;10.69;70.31;101929.47;5012140;28;49937;-72
2022/09/17 07:13:15;;;;;;;;;1.50;1.00;;;;;10.15;70.47;101827.59;5012834;28;49775;-72
2022/09/17 07:15:40;;;;;;;;;2.00;2.00;;;;;10.82;70.42;101937.91;5022692;28;50709;-71
2022/09/17 07:18:10;;;;;;;;;1.00;1.00;;;;;10.86;69.83;101926.66;5030314;28;49395;-71
2022/09/17 07:20:36;;;;;;;;;3.00;2.00;;;;;10.72;69.73;101901.63;5012584;28;49738;-70
2022/09/17 07:23:02;;;;;;;;;2.00;0.25;;;;;11.02;68.61;101932.50;5012815;28;49992;-72
2022/09/17 07:25:27;;;;;;;;;1.00;1.00;;;;;11.09;68.16;101942.38;5012049;28;50243;-72
2022/09/17 07:27:53;;;;;;;;;0.75;0.75;;;;;10.90;68.60;101909.28;5015572;28;49822;-71
2022/09/17 07:30:19;;;;;;;;;1.75;1.00;;;;;11.10;66.71;101934.59;5006795;28;49856;-71
2022/09/17 07:32:45;;;;;;;;;2.00;1.00;;;;;11.16;66.34;101924.28;5012605;28;49960;-72
2022/09/17 07:35:10;;;;;;;;;1.25;1.00;;;;;11.29;65.75;101949.31;5015126;28;49698;-71
2022/09/17 07:37:36;;;;;;;;;1.00;0.75;;;;;10.89;64.64;101858.47;5015489;28;49702;-70
2022/09/17 07:40:01;;;;;;;;;4.00;1.00;;;;;11.32;64.73;101915.22;5026125;28;49790;-70
2022/09/17 07:42:27;;;;;;;;;1.00;1.00;;;;;11.50;63.86;101938.66;5030068;28;49229;-71
2022/09/17 07:44:52;;;;;;;;;0.50;0.50;;;;;11.12;62.92;101859.31;5017716;28;49948;-72
2022/09/17 07:47:18;;;;;;;;;3.25;1.00;;;;;11.55;63.30;101915.13;5025203;28;57820;-71
2022/09/17 07:49:44;;;;;;;;;2.50;1.00;;;;;11.72;62.60;101928.03;5025334;28;49727;-70
2022/09/17 07:52:09;;;;;;;;;1.75;1.00;;;;;11.78;62.49;101932.63;5027410;28;49474;-70
2022/09/17 07:54:37;;;;;;;;;0.00;0.00;;;;;11.90;61.87;101940.97;5010164;28;55210;-70
2022/09/17 07:57:03;;;;;;;;;1.00;0.00;;;;;11.90;61.78;101930.44;5011599;28;49704;-70
2022/09/17 07:59:28;;;;;;;;;0.00;0.00;;;;;11.78;61.18;101877.38;5012350;28;50005;-70
2022/09/17 08:01:56;;;;;;;;;4.00;0.75;;;;;11.97;60.73;101894.72;5011444;28;49866;-71
2022/09/17 08:04:22;;;;;;;;;0.75;0.75;;;;;12.24;61.00;101932.44;5010744;28;49757;-70
2022/09/17 08:06:48;;;;;;;;;0.75;0.25;;;;;12.32;60.44;101924.81;4993228;28;49868;-69
2022/09/17 08:09:15;;;;;;;;;1.50;0.50;;;;;12.16;60.60;101888.28;5010866;28;49910;-70
2022/09/17 08:11:41;;;;;;;;;0.00;0.00;;;;;12.38;60.16;101908.31;5011929;28;49834;-69
2022/09/17 08:14:10;;;;;;;;;1.25;0.00;;;;;12.58;59.84;101941.44;5010750;28;49812;-67
2022/09/17 08:16:35;;;;;;;;;1.00;1.00;;;;;12.65;58.95;101934.63;5010749;28;49965;-71
2022/09/17 08:19:00;;;;;;;;;0.75;0.75;;;;;12.60;58.74;101921.31;5011250;28;49996;-69
2022/09/17 08:21:26;;;;;;;;;2.00;1.00;;;;;12.49;59.12;101888.47;5017748;28;50029;-72
2022/09/17 08:23:51;;;;;;;;;0.00;0.00;;;;;12.76;58.76;101928.84;5012799;28;49939;-71
2022/09/17 08:26:20;;;;;;;;;2.00;2.00;;;;;12.88;58.66;101939.75;5026552;28;49481;-72
2022/09/17 08:28:48;;;;;;;;;1.00;1.00;;;;;12.94;58.69;101939.03;5018305;28;49905;-72
2022/09/17 08:31:15;;;;;;;;;2.00;1.75;;;;;13.05;59.26;101939.34;5011346;28;50107;-73
2022/09/17 08:33:41;;;;;;;;;0.75;0.00;;;;;13.09;59.12;101944.75;4997269;28;50657;-71
2022/09/17 08:36:09;;;;;;;;;1.75;1.00;;;;;13.24;59.22;101935.56;5010525;28;49941;-71
2022/09/17 08:38:36;;;;;;;;;2.25;1.25;;;;;12.81;58.88;101868.34;4993170;28;49919;-78
2022/09/17 08:41:13;;;;;;;;;1.00;1.00;;;;;13.34;59.49;101949.03;5013058;28;49941;-73
2022/09/17 08:43:57;;;;;;;;;0.00;0.00;;;;;13.36;58.45;101955.25;5009565;28;50613;-73
2022/09/17 08:46:24;;;;;;;;;0.75;0.00;;;;;13.45;58.75;101954.59;5011183;28;49765;-72
2022/09/17 08:49:25;;;;;;;;;1.75;0.00;;;;;13.50;58.24;101955.63;5011310;28;49875;-69
2022/09/17 08:51:52;;;;;;;;;0.00;0.00;;;;;13.57;58.69;101959.31;4987610;28;49846;-71
2022/09/17 08:54:26;;;;;;;;;0.00;0.00;;;;;13.53;57.66;101958.34;5010648;28;49844;-70
2022/09/17 08:57:09;;;;;;;;;0.00;0.00;;;;;13.57;58.48;101968.13;5011224;28;49785;-73
2022/09/17 08:59:48;;;;;;;;;3.00;0.00;;;;;13.64;58.76;101964.81;5009545;28;49906;-71
2022/09/17 09:02:23;;;;;;;;;2.00;0.00;;;;;13.70;58.31;101958.78;5010901;28;49769;-72
2022/09/17 09:05:01;;;;;;;;;3.25;1.00;;;;;13.71;58.47;101953.59;4999520;28;50617;-71
2022/09/17 09:07:36;;;;;;;;;1.50;1.50;;;;;13.75;58.52;101946.63;5003111;28;49840;-71
2022/09/17 09:10:13;;;;;;;;;0.00;0.00;;;;;13.92;57.85;101966.44;5004323;28;49757;-71
2022/09/17 09:12:40;;;;;;;;;0.00;0.00;;;;;13.96;58.40;101944.53;5005950;28;49996;-68
2022/09/17 09:15:20;;;;;;;;;0.00;0.00;;;;;14.21;56.61;101968.94;5007445;28;49966;-72
2022/09/17 09:17:48;;;;;;;;;2.00;1.00;;;;;14.37;56.24;101962.28;5007296;28;50564;-67
2022/09/17 09:20:36;;;;;;;;;1.00;0.00;;;;;14.55;55.50;101968.94;5012357;28;49591;-67
2022/09/17 09:23:14;;;;;;;;;1.50;0.00;;;;;14.53;55.41;101941.59;5009716;28;49592;-69
2022/09/17 09:26:07;;;;;;;;;0.50;0.25;;;;;14.69;54.50;101969.28;5004622;28;50393;-73
2022/09/17 09:28:49;;;;;;;;;1.00;1.00;;;;;14.58;53.93;101952.28;4994794;28;49931;-70
2022/09/17 09:31:20;;;;;;;;;2.00;0.50;;;;;14.57;54.31;101937.25;5006934;28;49765;-73
2022/09/17 09:33:47;;;;;;;;;0.00;0.00;;;;;14.74;53.57;101943.81;5008538;28;50205;-75
2022/09/17 09:36:15;;;;;;;;;0.25;0.00;;;;;14.95;52.71;101975.13;5007534;28;49964;-68
2022/09/17 09:39:00;;;;;;;;;0.00;0.00;;;;;14.88;52.16;101967.94;5008264;28;50006;-68
2022/09/17 09:41:39;;;;;;;;;1.00;0.00;;;;;14.72;52.52;101965.81;5008133;28;50023;-69
2022/09/17 09:44:10;;;;;;;;;1.00;0.00;;;;;14.59;51.41;101947.03;5008168;28;49976;-74
2022/09/17 09:46:53;;;;;;;;;0.00;0.00;;;;;14.67;52.29;101985.94;5007241;28;52577;-73
2022/09/17 09:49:56;;;;;;;;;0.00;0.00;;;;;14.63;52.54;101976.16;5005736;28;50082;-69
2022/09/17 09:52:58;;;;;;;;;0.50;0.50;;;;;14.69;52.51;101958.69;5008562;28;49953;-71
2022/09/17 09:55:42;;;;;;;;;0.00;0.00;;;;;14.94;51.82;101973.34;5007563;28;49925;-70
2022/09/17 09:58:29;;;;;;;;;0.00;0.00;;;;;14.66;51.67;101904.88;5008155;28;50529;-72
2022/09/17 10:00:55;;;;;;;;;0.00;0.00;;;;;14.74;50.83;101917.38;5005916;28;49741;-71
2022/09/17 10:03:32;;;;;;;;;2.00;0.00;;;;;14.86;51.08;101909.75;5008401;28;49909;-76
2022/09/17 10:06:03;;;;;;;;;4.50;0.25;;;;;15.13;50.49;101949.09;5007012;28;50102;-70
2022/09/17 10:08:31;;;;;;;;;0.50;0.00;;;;;15.17;49.67;101971.22;5014911;28;50943;-73
2022/09/17 10:11:03;;;;;;;;;0.00;0.00;;;;;14.37;49.14;101822.28;5016401;28;49867;-71
2022/09/17 10:13:32;;;;;;;;;0.75;0.00;;;;;14.63;49.24;101871.34;5011231;28;49707;-74
2022/09/17 10:16:18;;;;;;;;;0.00;0.00;;;;;15.33;49.40;101970.66;5012395;28;50064;-69
2022/09/17 10:18:45;;;;;;;;;0.00;0.00;;;;;14.95;49.02;101876.41;5008617;28;50396;-74
2022/09/17 10:21:20;;;;;;;;;0.00;0.00;;;;;15.44;49.22;101928.53;5017210;28;49690;-75
2022/09/17 10:23:46;;;;;;;;;1.50;1.50;;;;;15.28;46.90;101914.13;5011013;28;50091;-76
2022/09/17 10:26:30;;;;;;;;;0.00;0.00;;;;;14.69;46.06;101844.16;5013098;28;50023;-74
2022/09/17 10:29:02;;;;;;;;;0.00;0.00;;;;;15.62;45.55;101963.34;5013443;28;49792;-74
2022/09/17 10:31:55;;;;;;;;;0.00;0.00;;;;;15.29;46.41;101902.69;5014228;28;49729;-77
2022/09/17 10:34:27;;;;;;;;;1.25;0.75;;;;;16.10;45.99;101956.25;5009517;28;49967;-75
2022/09/17 10:36:55;;;;;;;;;0.00;0.00;;;;;15.97;45.43;101915.44;5018302;28;50034;-74
2022/09/17 10:39:36;;;;;;;;;1.00;1.00;;;;;16.22;45.04;101957.38;5019246;28;49693;-73
2022/09/17 10:42:11;;;;;;;;;0.00;0.00;;;;;16.23;45.39;101953.84;5013308;28;50041;-71
2022/09/17 10:44:48;;;;;;;;;1.00;1.00;;;;;16.21;45.20;101949.38;5007926;28;49986;-68
2022/09/17 10:47:24;;;;;;;;;0.00;0.00;;;;;16.18;44.27;101923.72;5016502;28;49666;-68
2022/09/17 10:50:01;;;;;;;;;1.00;1.00;;;;;16.37;44.78;101924.91;5012434;28;50580;-73
2022/09/17 10:52:45;;;;;;;;;0.75;0.75;;;;;16.68;43.65;101949.22;5006756;28;49746;-69
2022/09/17 10:55:51;;;;;;;;;0.75;0.75;;;;;16.78;43.00;101919.34;5016155;28;49443;-77
2022/09/17 10:58:25;;;;;;;;;0.25;0.00;;;;;16.91;42.85;101941.66;5007829;28;50005;-76
2022/09/17 11:01:12;;;;;;;;;1.00;0.25;;;;;16.72;41.67;101944.03;5011946;28;50210;-69
2022/09/17 11:04:00;;;;;;;;;0.00;0.00;;;;;16.58;41.77;101942.91;5012576;28;49813;-75
2022/09/17 11:06:33;;;;;;;;;2.25;0.00;;;;;16.31;41.77;101935.44;4971123;28;49806;-79
2022/09/17 11:09:17;;;;;;;;;1.00;0.00;;;;;16.07;41.27;101932.38;5012119;28;50008;-75
2022/09/17 11:12:01;;;;;;;;;0.00;0.00;;;;;15.92;42.14;101933.91;5009291;28;49908;-73
2022/09/17 11:15:03;;;;;;;;;0.00;0.00;;;;;16.03;42.40;101927.03;5025704;28;50019;-72
2022/09/17 11:17:59;;;;;;;;;0.00;0.00;;;;;16.28;42.40;101907.09;5027430;28;49463;-76
2022/09/17 11:21:02;;;;;;;;;0.75;0.75;;;;;16.76;41.90;101900.78;5027216;28;49529;-74
2022/09/17 11:24:09;;;;;;;;;0.00;0.00;;;;;17.11;41.67;101906.53;5027473;28;49551;-75
2022/09/17 11:26:56;;;;;;;;;0.25;0.00;;;;;17.09;41.24;101899.44;5020330;28;49699;-78
2022/09/17 11:29:49;;;;;;;;;2.00;0.50;;;;;16.82;41.33;101903.53;5009118;28;49931;-81
2022/09/17 11:32:36;;;;;;;;;3.00;0.00;;;;;16.81;41.85;101908.81;5014980;28;49752;-79
2022/09/17 11:35:14;;;;;;;;;0.00;0.00;;;;;16.91;41.56;101901.88;5017259;28;49896;-81
2022/09/17 11:37:47;;;;;;;;;0.00;0.00;;;;;17.03;41.69;101892.28;5012342;28;49755;-73
2022/09/17 11:40:16;;;;;;;;;0.00;0.00;;;;;17.00;41.99;101894.03;5012331;28;49885;-75
2022/09/17 11:42:48;;;;;;;;;0.00;0.00;;;;;16.82;42.13;101907.94;5012873;28;49655;-74
2022/09/17 11:45:19;;;;;;;;;0.25;0.25;;;;;16.66;43.16;101914.75;5012134;28;49720;-80
2022/09/17 11:48:00;;;;;;;;;0.00;0.00;;;;;16.43;43.25;101877.31;5012685;28;49972;-85